sensor_id;sensor_type;location;lat;lon;timestamp;P1;durP1;ratioP1;P2;durP2;ratioP2
3757;SDS011;1894;51.038;13.692;2022-08-19T00:02:02;22.20;;;19.20;;
3757;SDS011;1894;51.038;13.692;2022-08-19T00:04:30;22.20;;;19.90;;
3757;SDS011;1894;51.038;13.692;2022-08-19T00:07:01;24.37;;;20.80;;
3757;SDS011;1894;51.038;13.692;2022-08-19T00:09:30;23.27;;;19.10;;
3757;SDS011;1894;51.038;13.692;2022-08-19T00:11:57;21.47;;;19.43;;
3757;SDS011;1894;51.038;13.692;2022-08-19T00:14:25;23.77;;;20.53;;
3757;SDS011;1894;51.038;13.692;2022-08-19T00:16:53;26.43;;;21.37;;
3757;SDS011;1894;51.038;13.692;2022-08-19T00:19:21;21.00;;;18.90;;
3757;SDS011;1894;51.038;13.692;2022-08-19T00:21:49;23.40;;;20.27;;
3757;SDS011;1894;51.038;13.692;2022-08-19T00:24:17;25.70;;;21.80;;
3757;SDS011;1894;51.038;13.692;2022-08-19T00:26:45;22.50;;;18.97;;
3757;SDS011;1894;51.038;13.692;2022-08-19T00:29:14;25.10;;;21.27;;
3757;SDS011;1894;51.038;13.692;2022-08-19T00:31:43;27.23;;;20.60;;
3757;SDS011;1894;51.038;13.692;2022-08-19T00:34:12;22.47;;;20.40;;
3757;SDS011;1894;51.038;13.692;2022-08-19T00:36:40;22.90;;;20.63;;
3757;SDS011;1894;51.038;13.692;2022-08-19T00:39:08;22.67;;;20.00;;
3757;SDS011;1894;51.038;13.692;2022-08-19T00:41:36;23.93;;;21.47;;
3757;SDS011;1894;51.038;13.692;2022-08-19T00:44:12;23.47;;;20.90;;
3757;SDS011;1894;51.038;13.692;2022-08-19T00:46:53;23.73;;;21.17;;
3757;SDS011;1894;51.038;13.692;2022-08-19T00:51:55;25.60;;;21.17;;
3757;SDS011;1894;51.038;13.692;2022-08-19T00:54:30;30.00;;;23.37;;
3757;SDS011;1894;51.038;13.692;2022-08-19T00:56:59;25.50;;;22.70;;
3757;SDS011;1894;51.038;13.692;2022-08-19T00:59:30;26.70;;;23.90;;
3757;SDS011;1894;51.038;13.692;2022-08-19T01:02:19;23.17;;;20.80;;
3757;SDS011;1894;51.038;13.692;2022-08-19T01:04:46;26.90;;;24.10;;
3757;SDS011;1894;51.038;13.692;2022-08-19T01:07:13;27.27;;;24.07;;
3757;SDS011;1894;51.038;13.692;2022-08-19T01:09:45;25.93;;;23.20;;
3757;SDS011;1894;51.038;13.692;2022-08-19T01:12:12;27.47;;;24.53;;
3757;SDS011;1894;51.038;13.692;2022-08-19T01:14:40;27.53;;;24.57;;
3757;SDS011;1894;51.038;13.692;2022-08-19T01:17:08;28.37;;;24.33;;
3757;SDS011;1894;51.038;13.692;2022-08-19T01:19:39;23.07;;;20.57;;
3757;SDS011;1894;51.038;13.692;2022-08-19T01:24:55;27.63;;;24.70;;
3757;SDS011;1894;51.038;13.692;2022-08-19T01:27:24;28.90;;;25.20;;
3757;SDS011;1894;51.038;13.692;2022-08-19T01:29:55;27.23;;;22.53;;
3757;SDS011;1894;51.038;13.692;2022-08-19T01:32:22;30.50;;;25.13;;
3757;SDS011;1894;51.038;13.692;2022-08-19T01:34:59;27.77;;;25.03;;
3757;SDS011;1894;51.038;13.692;2022-08-19T01:37:28;25.97;;;23.27;;
3757;SDS011;1894;51.038;13.692;2022-08-19T01:39:56;25.97;;;23.30;;
3757;SDS011;1894;51.038;13.692;2022-08-19T01:42:24;27.20;;;24.43;;
3757;SDS011;1894;51.038;13.692;2022-08-19T01:44:56;31.37;;;28.07;;
3757;SDS011;1894;51.038;13.692;2022-08-19T01:47:23;30.33;;;26.23;;
3757;SDS011;1894;51.038;13.692;2022-08-19T01:49:50;26.90;;;22.80;;
3757;SDS011;1894;51.038;13.692;2022-08-19T01:52:17;29.27;;;26.23;;
3757;SDS011;1894;51.038;13.692;2022-08-19T01:54:45;27.97;;;24.97;;
3757;SDS011;1894;51.038;13.692;2022-08-19T01:57:12;26.37;;;23.77;;
3757;SDS011;1894;51.038;13.692;2022-08-19T01:59:41;29.03;;;24.53;;
3757;SDS011;1894;51.038;13.692;2022-08-19T02:02:10;29.47;;;26.50;;
3757;SDS011;1894;51.038;13.692;2022-08-19T02:04:37;29.20;;;26.23;;
3757;SDS011;1894;51.038;13.692;2022-08-19T02:07:05;26.73;;;24.13;;
3757;SDS011;1894;51.038;13.692;2022-08-19T02:09:34;28.13;;;25.20;;
3757;SDS011;1894;51.038;13.692;2022-08-19T02:12:02;25.53;;;22.87;;
3757;SDS011;1894;51.038;13.692;2022-08-19T02:14:30;28.37;;;25.40;;
3757;SDS011;1894;51.038;13.692;2022-08-19T02:16:57;29.33;;;25.17;;
3757;SDS011;1894;51.038;13.692;2022-08-19T02:19:24;26.97;;;23.77;;
3757;SDS011;1894;51.038;13.692;2022-08-19T02:21:51;28.30;;;25.43;;
3757;SDS011;1894;51.038;13.692;2022-08-19T02:24:18;26.90;;;24.27;;
3757;SDS011;1894;51.038;13.692;2022-08-19T02:26:45;28.73;;;25.27;;
3757;SDS011;1894;51.038;13.692;2022-08-19T02:29:12;24.40;;;22.00;;
3757;SDS011;1894;51.038;13.692;2022-08-19T02:31:39;27.33;;;24.70;;
3757;SDS011;1894;51.038;13.692;2022-08-19T02:34:07;28.03;;;25.33;;
3757;SDS011;1894;51.038;13.692;2022-08-19T02:36:34;26.03;;;23.53;;
3757;SDS011;1894;51.038;13.692;2022-08-19T02:39:01;28.67;;;25.60;;
3757;SDS011;1894;51.038;13.692;2022-08-19T02:41:29;28.47;;;25.53;;
3757;SDS011;1894;51.038;13.692;2022-08-19T02:43:59;27.40;;;24.80;;
3757;SDS011;1894;51.038;13.692;2022-08-19T02:46:47;25.40;;;22.80;;
3757;SDS011;1894;51.038;13.692;2022-08-19T02:49:17;27.73;;;24.50;;
3757;SDS011;1894;51.038;13.692;2022-08-19T02:51:45;28.57;;;25.60;;
3757;SDS011;1894;51.038;13.692;2022-08-19T02:54:13;23.40;;;21.10;;
3757;SDS011;1894;51.038;13.692;2022-08-19T02:56:41;32.60;;;27.60;;
3757;SDS011;1894;51.038;13.692;2022-08-19T02:59:09;26.33;;;23.90;;
3757;SDS011;1894;51.038;13.692;2022-08-19T03:01:39;31.17;;;27.90;;
3757;SDS011;1894;51.038;13.692;2022-08-19T03:04:08;28.27;;;25.17;;
3757;SDS011;1894;51.038;13.692;2022-08-19T03:06:38;26.50;;;23.90;;
3757;SDS011;1894;51.038;13.692;2022-08-19T03:09:08;28.90;;;25.97;;
3757;SDS011;1894;51.038;13.692;2022-08-19T03:11:36;33.70;;;30.33;;
3757;SDS011;1894;51.038;13.692;2022-08-19T03:14:04;31.70;;;28.50;;
3757;SDS011;1894;51.038;13.692;2022-08-19T03:16:34;26.57;;;23.87;;
3757;SDS011;1894;51.038;13.692;2022-08-19T03:19:13;30.50;;;27.37;;
3757;SDS011;1894;51.038;13.692;2022-08-19T03:21:42;32.00;;;28.40;;
3757;SDS011;1894;51.038;13.692;2022-08-19T03:24:13;31.70;;;28.40;;
3757;SDS011;1894;51.038;13.692;2022-08-19T03:26:41;29.63;;;26.70;;
3757;SDS011;1894;51.038;13.692;2022-08-19T03:29:10;30.63;;;27.40;;
3757;SDS011;1894;51.038;13.692;2022-08-19T03:31:39;30.87;;;27.70;;
3757;SDS011;1894;51.038;13.692;2022-08-19T03:34:22;31.33;;;28.37;;
3757;SDS011;1894;51.038;13.692;2022-08-19T03:36:55;31.10;;;27.77;;
3757;SDS011;1894;51.038;13.692;2022-08-19T03:39:24;31.33;;;28.20;;
3757;SDS011;1894;51.038;13.692;2022-08-19T03:41:53;32.57;;;29.17;;
3757;SDS011;1894;51.038;13.692;2022-08-19T03:44:46;28.57;;;25.70;;
3757;SDS011;1894;51.038;13.692;2022-08-19T03:47:13;30.67;;;27.87;;
3757;SDS011;1894;51.038;13.692;2022-08-19T03:49:43;29.60;;;26.83;;
3757;SDS011;1894;51.038;13.692;2022-08-19T03:52:11;29.93;;;26.83;;
3757;SDS011;1894;51.038;13.692;2022-08-19T03:54:38;30.43;;;27.37;;
3757;SDS011;1894;51.038;13.692;2022-08-19T03:57:05;28.67;;;25.73;;
3757;SDS011;1894;51.038;13.692;2022-08-19T03:59:33;30.43;;;27.33;;
3757;SDS011;1894;51.038;13.692;2022-08-19T04:02:03;31.33;;;28.20;;
3757;SDS011;1894;51.038;13.692;2022-08-19T04:04:36;29.43;;;26.53;;
3757;SDS011;1894;51.038;13.692;2022-08-19T04:07:04;32.83;;;29.23;;
3757;SDS011;1894;51.038;13.692;2022-08-19T04:09:33;28.77;;;25.97;;
3757;SDS011;1894;51.038;13.692;2022-08-19T04:12:00;30.47;;;27.13;;
3757;SDS011;1894;51.038;13.692;2022-08-19T04:14:28;28.87;;;26.03;;
3757;SDS011;1894;51.038;13.692;2022-08-19T04:17:00;34.10;;;25.33;;
3757;SDS011;1894;51.038;13.692;2022-08-19T04:19:31;30.73;;;27.37;;
3757;SDS011;1894;51.038;13.692;2022-08-19T04:22:00;28.87;;;26.07;;
3757;SDS011;1894;51.038;13.692;2022-08-19T04:24:27;29.97;;;26.73;;
3757;SDS011;1894;51.038;13.692;2022-08-19T04:26:54;33.10;;;29.70;;
3757;SDS011;1894;51.038;13.692;2022-08-19T04:29:23;33.07;;;28.07;;
3757;SDS011;1894;51.038;13.692;2022-08-19T04:31:52;30.47;;;27.20;;
3757;SDS011;1894;51.038;13.692;2022-08-19T04:34:21;31.10;;;27.80;;
3757;SDS011;1894;51.038;13.692;2022-08-19T04:36:51;33.10;;;27.13;;
3757;SDS011;1894;51.038;13.692;2022-08-19T04:39:21;31.33;;;28.10;;
3757;SDS011;1894;51.038;13.692;2022-08-19T04:42:10;31.43;;;26.03;;
3757;SDS011;1894;51.038;13.692;2022-08-19T04:44:56;30.40;;;27.30;;
3757;SDS011;1894;51.038;13.692;2022-08-19T04:47:25;30.27;;;26.57;;
3757;SDS011;1894;51.038;13.692;2022-08-19T04:50:12;29.23;;;26.40;;
3757;SDS011;1894;51.038;13.692;2022-08-19T04:52:43;25.40;;;22.90;;
3757;SDS011;1894;51.038;13.692;2022-08-19T04:55:10;27.43;;;24.57;;
3757;SDS011;1894;51.038;13.692;2022-08-19T04:57:38;30.30;;;27.20;;
3757;SDS011;1894;51.038;13.692;2022-08-19T05:00:10;30.50;;;27.50;;
3757;SDS011;1894;51.038;13.692;2022-08-19T05:02:38;33.80;;;29.53;;
3757;SDS011;1894;51.038;13.692;2022-08-19T05:05:05;31.73;;;28.53;;
3757;SDS011;1894;51.038;13.692;2022-08-19T05:07:33;33.37;;;28.50;;
3757;SDS011;1894;51.038;13.692;2022-08-19T05:10:00;29.33;;;26.23;;
3757;SDS011;1894;51.038;13.692;2022-08-19T05:12:28;33.90;;;30.40;;
3757;SDS011;1894;51.038;13.692;2022-08-19T05:14:56;33.70;;;30.40;;
3757;SDS011;1894;51.038;13.692;2022-08-19T05:17:24;31.60;;;28.10;;
3757;SDS011;1894;51.038;13.692;2022-08-19T05:19:55;31.93;;;28.73;;
3757;SDS011;1894;51.038;13.692;2022-08-19T05:22:42;31.30;;;28.10;;
3757;SDS011;1894;51.038;13.692;2022-08-19T05:25:12;31.40;;;28.13;;
3757;SDS011;1894;51.038;13.692;2022-08-19T05:27:44;31.20;;;27.03;;
3757;SDS011;1894;51.038;13.692;2022-08-19T05:30:12;35.23;;;28.00;;
3757;SDS011;1894;51.038;13.692;2022-08-19T05:32:39;30.67;;;27.50;;
3757;SDS011;1894;51.038;13.692;2022-08-19T05:35:07;31.27;;;27.83;;
3757;SDS011;1894;51.038;13.692;2022-08-19T05:37:34;32.73;;;29.33;;
3757;SDS011;1894;51.038;13.692;2022-08-19T05:40:02;33.17;;;27.43;;
3757;SDS011;1894;51.038;13.692;2022-08-19T05:42:29;28.90;;;25.80;;
3757;SDS011;1894;51.038;13.692;2022-08-19T05:44:57;32.03;;;28.97;;
3757;SDS011;1894;51.038;13.692;2022-08-19T05:47:24;33.10;;;26.40;;
3757;SDS011;1894;51.038;13.692;2022-08-19T05:49:51;28.37;;;25.53;;
3757;SDS011;1894;51.038;13.692;2022-08-19T05:52:18;29.17;;;26.13;;
3757;SDS011;1894;51.038;13.692;2022-08-19T05:54:52;30.70;;;22.93;;
3757;SDS011;1894;51.038;13.692;2022-08-19T05:57:22;30.20;;;23.43;;
3757;SDS011;1894;51.038;13.692;2022-08-19T05:59:50;23.73;;;21.40;;
3757;SDS011;1894;51.038;13.692;2022-08-19T06:02:25;27.10;;;21.50;;
3757;SDS011;1894;51.038;13.692;2022-08-19T06:04:52;21.63;;;19.53;;
3757;SDS011;1894;51.038;13.692;2022-08-19T06:07:19;21.10;;;18.87;;
3757;SDS011;1894;51.038;13.692;2022-08-19T06:09:47;28.40;;;16.90;;
3757;SDS011;1894;51.038;13.692;2022-08-19T06:12:30;18.07;;;15.30;;
3757;SDS011;1894;51.038;13.692;2022-08-19T06:15:04;19.70;;;17.00;;
3757;SDS011;1894;51.038;13.692;2022-08-19T06:17:36;16.80;;;15.03;;
3757;SDS011;1894;51.038;13.692;2022-08-19T06:20:07;16.53;;;15.00;;
3757;SDS011;1894;51.038;13.692;2022-08-19T06:22:42;17.27;;;15.47;;
3757;SDS011;1894;51.038;13.692;2022-08-19T06:25:11;15.87;;;14.27;;
3757;SDS011;1894;51.038;13.692;2022-08-19T06:27:40;21.60;;;18.50;;
3757;SDS011;1894;51.038;13.692;2022-08-19T06:30:27;15.50;;;13.90;;
3757;SDS011;1894;51.038;13.692;2022-08-19T06:32:54;17.10;;;13.83;;
3757;SDS011;1894;51.038;13.692;2022-08-19T06:35:21;15.03;;;13.53;;
3757;SDS011;1894;51.038;13.692;2022-08-19T06:37:48;18.53;;;15.20;;
3757;SDS011;1894;51.038;13.692;2022-08-19T06:40:15;21.53;;;13.23;;
3757;SDS011;1894;51.038;13.692;2022-08-19T06:42:42;16.40;;;14.07;;
3757;SDS011;1894;51.038;13.692;2022-08-19T06:45:21;16.53;;;14.60;;
3757;SDS011;1894;51.038;13.692;2022-08-19T06:47:50;15.80;;;14.27;;
3757;SDS011;1894;51.038;13.692;2022-08-19T06:50:25;20.33;;;14.57;;
3757;SDS011;1894;51.038;13.692;2022-08-19T06:52:52;16.10;;;14.20;;
3757;SDS011;1894;51.038;13.692;2022-08-19T06:55:20;15.60;;;13.90;;
3757;SDS011;1894;51.038;13.692;2022-08-19T06:57:47;16.93;;;13.50;;
3757;SDS011;1894;51.038;13.692;2022-08-19T07:00:17;21.63;;;16.33;;
3757;SDS011;1894;51.038;13.692;2022-08-19T07:02:44;18.60;;;16.80;;
3757;SDS011;1894;51.038;13.692;2022-08-19T07:05:22;17.77;;;15.83;;
3757;SDS011;1894;51.038;13.692;2022-08-19T07:07:49;16.83;;;15.20;;
3757;SDS011;1894;51.038;13.692;2022-08-19T07:10:17;21.63;;;19.20;;
3757;SDS011;1894;51.038;13.692;2022-08-19T07:12:44;22.23;;;20.03;;
3757;SDS011;1894;51.038;13.692;2022-08-19T07:15:12;22.17;;;19.70;;
3757;SDS011;1894;51.038;13.692;2022-08-19T07:17:40;24.57;;;21.00;;
3757;SDS011;1894;51.038;13.692;2022-08-19T07:20:07;24.20;;;21.90;;
3757;SDS011;1894;51.038;13.692;2022-08-19T07:22:39;24.10;;;21.53;;
3757;SDS011;1894;51.038;13.692;2022-08-19T07:25:07;24.60;;;20.40;;
3757;SDS011;1894;51.038;13.692;2022-08-19T07:27:35;24.07;;;21.47;;
3757;SDS011;1894;51.038;13.692;2022-08-19T07:30:05;20.13;;;18.03;;
3757;SDS011;1894;51.038;13.692;2022-08-19T07:32:37;22.83;;;19.07;;
3757;SDS011;1894;51.038;13.692;2022-08-19T07:35:05;22.23;;;19.50;;
3757;SDS011;1894;51.038;13.692;2022-08-19T07:37:33;24.43;;;20.90;;
3757;SDS011;1894;51.038;13.692;2022-08-19T07:40:02;24.80;;;22.10;;
3757;SDS011;1894;51.038;13.692;2022-08-19T07:42:30;24.87;;;22.10;;
3757;SDS011;1894;51.038;13.692;2022-08-19T07:44:58;25.67;;;22.23;;
3757;SDS011;1894;51.038;13.692;2022-08-19T07:47:25;26.00;;;23.40;;
3757;SDS011;1894;51.038;13.692;2022-08-19T07:50:12;23.37;;;20.90;;
3757;SDS011;1894;51.038;13.692;2022-08-19T07:52:39;27.00;;;24.10;;
3757;SDS011;1894;51.038;13.692;2022-08-19T07:55:07;26.50;;;23.80;;
3757;SDS011;1894;51.038;13.692;2022-08-19T07:57:56;30.67;;;24.07;;
3757;SDS011;1894;51.038;13.692;2022-08-19T08:00:24;32.70;;;25.03;;
3757;SDS011;1894;51.038;13.692;2022-08-19T08:02:51;28.77;;;24.80;;
3757;SDS011;1894;51.038;13.692;2022-08-19T08:05:21;25.73;;;22.83;;
3757;SDS011;1894;51.038;13.692;2022-08-19T08:08:10;25.30;;;22.60;;
3757;SDS011;1894;51.038;13.692;2022-08-19T08:10:57;25.37;;;22.67;;
3757;SDS011;1894;51.038;13.692;2022-08-19T08:13:25;25.17;;;22.77;;
3757;SDS011;1894;51.038;13.692;2022-08-19T08:15:54;24.13;;;21.43;;
3757;SDS011;1894;51.038;13.692;2022-08-19T08:18:23;25.50;;;22.83;;
3757;SDS011;1894;51.038;13.692;2022-08-19T08:20:53;29.10;;;25.60;;
3757;SDS011;1894;51.038;13.692;2022-08-19T08:23:23;25.60;;;23.00;;
3757;SDS011;1894;51.038;13.692;2022-08-19T08:25:55;22.90;;;20.80;;
3757;SDS011;1894;51.038;13.692;2022-08-19T08:28:24;23.93;;;19.70;;
3757;SDS011;1894;51.038;13.692;2022-08-19T08:30:55;23.47;;;21.13;;
3757;SDS011;1894;51.038;13.692;2022-08-19T08:33:24;23.10;;;20.77;;
3757;SDS011;1894;51.038;13.692;2022-08-19T08:36:01;21.57;;;19.40;;
3757;SDS011;1894;51.038;13.692;2022-08-19T08:38:31;21.40;;;19.33;;
3757;SDS011;1894;51.038;13.692;2022-08-19T08:41:51;20.03;;;18.03;;
3757;SDS011;1894;51.038;13.692;2022-08-19T08:44:13;19.70;;;16.27;;
3757;SDS011;1894;51.038;13.692;2022-08-19T08:46:57;18.40;;;16.60;;
3757;SDS011;1894;51.038;13.692;2022-08-19T08:54:46;15.80;;;14.20;;
3757;SDS011;1894;51.038;13.692;2022-08-19T08:57:35;16.77;;;15.07;;
3757;SDS011;1894;51.038;13.692;2022-08-19T09:00:11;19.87;;;15.47;;
3757;SDS011;1894;51.038;13.692;2022-08-19T09:02:43;15.33;;;14.03;;
3757;SDS011;1894;51.038;13.692;2022-08-19T09:05:16;13.30;;;12.10;;
3757;SDS011;1894;51.038;13.692;2022-08-19T09:10:22;14.53;;;13.23;;
3757;SDS011;1894;51.038;13.692;2022-08-19T09:16:21;17.33;;;14.63;;
3757;SDS011;1894;51.038;13.692;2022-08-19T09:18:55;16.70;;;15.10;;
3757;SDS011;1894;51.038;13.692;2022-08-19T09:21:28;19.23;;;16.13;;
3757;SDS011;1894;51.038;13.692;2022-08-19T09:23:58;16.60;;;15.00;;
3757;SDS011;1894;51.038;13.692;2022-08-19T09:26:29;23.43;;;17.07;;
3757;SDS011;1894;51.038;13.692;2022-08-19T09:29:17;17.97;;;16.07;;
3757;SDS011;1894;51.038;13.692;2022-08-19T09:31:47;17.53;;;15.83;;
3757;SDS011;1894;51.038;13.692;2022-08-19T09:34:16;16.97;;;15.37;;
3757;SDS011;1894;51.038;13.692;2022-08-19T09:36:46;17.60;;;15.90;;
3757;SDS011;1894;51.038;13.692;2022-08-19T09:39:18;22.83;;;18.33;;
3757;SDS011;1894;51.038;13.692;2022-08-19T09:41:46;20.13;;;18.10;;
3757;SDS011;1894;51.038;13.692;2022-08-19T09:44:14;19.20;;;17.30;;
3757;SDS011;1894;51.038;13.692;2022-08-19T09:46:43;20.00;;;18.10;;
3757;SDS011;1894;51.038;13.692;2022-08-19T09:49:14;21.03;;;18.80;;
3757;SDS011;1894;51.038;13.692;2022-08-19T09:51:44;19.23;;;17.50;;
3757;SDS011;1894;51.038;13.692;2022-08-19T09:54:17;22.50;;;18.00;;
3757;SDS011;1894;51.038;13.692;2022-08-19T09:56:50;17.90;;;16.30;;
3757;SDS011;1894;51.038;13.692;2022-08-19T09:59:18;16.00;;;14.40;;
3757;SDS011;1894;51.038;13.692;2022-08-19T10:01:45;14.27;;;12.87;;
3757;SDS011;1894;51.038;13.692;2022-08-19T10:04:13;15.67;;;14.03;;
3757;SDS011;1894;51.038;13.692;2022-08-19T10:06:48;14.47;;;13.07;;
3757;SDS011;1894;51.038;13.692;2022-08-19T10:09:19;15.80;;;14.20;;
3757;SDS011;1894;51.038;13.692;2022-08-19T10:12:00;15.40;;;13.90;;
3757;SDS011;1894;51.038;13.692;2022-08-19T10:14:29;13.53;;;12.10;;
3757;SDS011;1894;51.038;13.692;2022-08-19T10:16:57;15.17;;;11.70;;
3757;SDS011;1894;51.038;13.692;2022-08-19T10:19:30;14.43;;;11.70;;
3757;SDS011;1894;51.038;13.692;2022-08-19T10:22:03;12.83;;;11.53;;
3757;SDS011;1894;51.038;13.692;2022-08-19T10:24:37;11.57;;;10.47;;
3757;SDS011;1894;51.038;13.692;2022-08-19T10:27:07;15.17;;;11.00;;
3757;SDS011;1894;51.038;13.692;2022-08-19T10:29:34;11.70;;;10.47;;
3757;SDS011;1894;51.038;13.692;2022-08-19T10:32:01;12.03;;;9.97;;
3757;SDS011;1894;51.038;13.692;2022-08-19T10:34:38;10.40;;;9.40;;
3757;SDS011;1894;51.038;13.692;2022-08-19T10:37:14;9.97;;;8.97;;
3757;SDS011;1894;51.038;13.692;2022-08-19T10:39:54;9.43;;;8.33;;
3757;SDS011;1894;51.038;13.692;2022-08-19T10:42:21;9.10;;;7.50;;
3757;SDS011;1894;51.038;13.692;2022-08-19T10:44:48;7.17;;;6.50;;
3757;SDS011;1894;51.038;13.692;2022-08-19T10:47:20;6.70;;;6.10;;
3757;SDS011;1894;51.038;13.692;2022-08-19T10:49:52;7.00;;;6.40;;
3757;SDS011;1894;51.038;13.692;2022-08-19T10:52:39;7.00;;;5.87;;
3757;SDS011;1894;51.038;13.692;2022-08-19T10:55:16;5.60;;;5.10;;
3757;SDS011;1894;51.038;13.692;2022-08-19T10:58:10;5.20;;;4.80;;
3757;SDS011;1894;51.038;13.692;2022-08-19T11:00:39;6.30;;;5.80;;
3757;SDS011;1894;51.038;13.692;2022-08-19T11:03:07;6.23;;;5.73;;
3757;SDS011;1894;51.038;13.692;2022-08-19T11:05:35;6.10;;;5.33;;
3757;SDS011;1894;51.038;13.692;2022-08-19T11:08:06;8.57;;;7.77;;
3757;SDS011;1894;51.038;13.692;2022-08-19T11:10:49;8.57;;;7.73;;
3757;SDS011;1894;51.038;13.692;2022-08-19T11:13:17;9.37;;;8.13;;
3757;SDS011;1894;51.038;13.692;2022-08-19T11:15:44;10.07;;;9.10;;
3757;SDS011;1894;51.038;13.692;2022-08-19T11:18:13;10.70;;;9.60;;
3757;SDS011;1894;51.038;13.692;2022-08-19T11:20:43;12.10;;;11.03;;
3757;SDS011;1894;51.038;13.692;2022-08-19T11:23:10;10.27;;;9.40;;
3757;SDS011;1894;51.038;13.692;2022-08-19T11:25:38;11.63;;;10.60;;
3757;SDS011;1894;51.038;13.692;2022-08-19T11:28:05;10.70;;;9.73;;
3757;SDS011;1894;51.038;13.692;2022-08-19T11:30:32;13.47;;;12.17;;
3757;SDS011;1894;51.038;13.692;2022-08-19T11:33:00;11.77;;;10.67;;
3757;SDS011;1894;51.038;13.692;2022-08-19T11:35:27;12.87;;;10.50;;
3757;SDS011;1894;51.038;13.692;2022-08-19T11:37:54;13.83;;;12.53;;
3757;SDS011;1894;51.038;13.692;2022-08-19T11:40:24;15.73;;;14.17;;
3757;SDS011;1894;51.038;13.692;2022-08-19T11:42:51;14.77;;;13.47;;
3757;SDS011;1894;51.038;13.692;2022-08-19T11:45:24;15.40;;;14.00;;
3757;SDS011;1894;51.038;13.692;2022-08-19T11:47:53;19.63;;;15.00;;
3757;SDS011;1894;51.038;13.692;2022-08-19T11:50:21;18.23;;;16.53;;
3757;SDS011;1894;51.038;13.692;2022-08-19T11:52:50;16.47;;;15.03;;
3757;SDS011;1894;51.038;13.692;2022-08-19T11:55:22;19.27;;;17.27;;
3757;SDS011;1894;51.038;13.692;2022-08-19T11:57:49;17.40;;;15.70;;
3757;SDS011;1894;51.038;13.692;2022-08-19T12:00:17;16.83;;;15.37;;
3757;SDS011;1894;51.038;13.692;2022-08-19T12:02:44;21.10;;;17.43;;
3757;SDS011;1894;51.038;13.692;2022-08-19T12:05:12;18.07;;;16.37;;
3757;SDS011;1894;51.038;13.692;2022-08-19T12:07:39;19.10;;;17.10;;
3757;SDS011;1894;51.038;13.692;2022-08-19T12:10:08;22.23;;;19.53;;
3757;SDS011;1894;51.038;13.692;2022-08-19T12:12:37;18.70;;;16.73;;
3757;SDS011;1894;51.038;13.692;2022-08-19T12:15:09;21.23;;;18.50;;
3757;SDS011;1894;51.038;13.692;2022-08-19T12:17:37;21.90;;;19.63;;
3757;SDS011;1894;51.038;13.692;2022-08-19T12:20:04;22.87;;;20.63;;
3757;SDS011;1894;51.038;13.692;2022-08-19T12:22:33;21.37;;;19.37;;
3757;SDS011;1894;51.038;13.692;2022-08-19T12:25:01;24.40;;;21.90;;
3757;SDS011;1894;51.038;13.692;2022-08-19T12:27:28;30.07;;;23.60;;
3757;SDS011;1894;51.038;13.692;2022-08-19T12:30:07;30.93;;;23.00;;
3757;SDS011;1894;51.038;13.692;2022-08-19T12:32:36;26.67;;;23.80;;
3757;SDS011;1894;51.038;13.692;2022-08-19T12:35:03;31.10;;;27.23;;
3757;SDS011;1894;51.038;13.692;2022-08-19T12:37:31;28.63;;;25.57;;
3757;SDS011;1894;51.038;13.692;2022-08-19T12:39:58;28.20;;;24.00;;
3757;SDS011;1894;51.038;13.692;2022-08-19T12:42:26;26.67;;;21.83;;
3757;SDS011;1894;51.038;13.692;2022-08-19T12:44:53;25.90;;;22.20;;
3757;SDS011;1894;51.038;13.692;2022-08-19T12:47:20;27.00;;;24.10;;
3757;SDS011;1894;51.038;13.692;2022-08-19T12:49:47;30.20;;;27.00;;
3757;SDS011;1894;51.038;13.692;2022-08-19T12:52:21;30.40;;;24.43;;
3757;SDS011;1894;51.038;13.692;2022-08-19T12:54:50;31.37;;;28.03;;
3757;SDS011;1894;51.038;13.692;2022-08-19T12:57:20;25.97;;;23.17;;
3757;SDS011;1894;51.038;13.692;2022-08-19T12:59:57;36.80;;;29.33;;
3757;SDS011;1894;51.038;13.692;2022-08-19T13:02:41;29.80;;;26.60;;
3757;SDS011;1894;51.038;13.692;2022-08-19T13:05:13;23.73;;;21.33;;
3757;SDS011;1894;51.038;13.692;2022-08-19T13:07:43;26.07;;;23.33;;
3757;SDS011;1894;51.038;13.692;2022-08-19T13:10:11;27.47;;;24.43;;
3757;SDS011;1894;51.038;13.692;2022-08-19T13:12:42;27.70;;;24.80;;
3757;SDS011;1894;51.038;13.692;2022-08-19T13:15:12;33.13;;;27.70;;
3757;SDS011;1894;51.038;13.692;2022-08-19T13:17:43;29.50;;;24.97;;
3757;SDS011;1894;51.038;13.692;2022-08-19T13:20:10;31.03;;;27.70;;
3757;SDS011;1894;51.038;13.692;2022-08-19T13:22:37;31.30;;;25.73;;
3757;SDS011;1894;51.038;13.692;2022-08-19T13:25:05;28.60;;;25.07;;
3757;SDS011;1894;51.038;13.692;2022-08-19T13:27:34;32.60;;;26.73;;
3757;SDS011;1894;51.038;13.692;2022-08-19T13:30:02;36.10;;;26.57;;
3757;SDS011;1894;51.038;13.692;2022-08-19T13:32:49;29.97;;;26.67;;
3757;SDS011;1894;51.038;13.692;2022-08-19T13:35:35;31.40;;;26.17;;
3757;SDS011;1894;51.038;13.692;2022-08-19T13:38:02;32.03;;;28.60;;
3757;SDS011;1894;51.038;13.692;2022-08-19T13:40:37;39.53;;;32.50;;
3757;SDS011;1894;51.038;13.692;2022-08-19T13:43:07;44.70;;;39.10;;
3757;SDS011;1894;51.038;13.692;2022-08-19T13:45:49;49.00;;;40.20;;
3757;SDS011;1894;51.038;13.692;2022-08-19T13:48:20;42.53;;;35.83;;
3757;SDS011;1894;51.038;13.692;2022-08-19T13:50:47;41.37;;;35.87;;
3757;SDS011;1894;51.038;13.692;2022-08-19T13:53:15;41.60;;;36.90;;
3757;SDS011;1894;51.038;13.692;2022-08-19T13:55:43;41.87;;;37.37;;
3757;SDS011;1894;51.038;13.692;2022-08-19T13:58:11;44.70;;;37.97;;
3757;SDS011;1894;51.038;13.692;2022-08-19T14:00:39;53.47;;;36.97;;
3757;SDS011;1894;51.038;13.692;2022-08-19T14:03:10;45.90;;;36.23;;
3757;SDS011;1894;51.038;13.692;2022-08-19T14:05:37;42.80;;;34.00;;
3757;SDS011;1894;51.038;13.692;2022-08-19T14:08:05;48.80;;;39.10;;
3757;SDS011;1894;51.038;13.692;2022-08-19T14:10:33;45.50;;;34.87;;
3757;SDS011;1894;51.038;13.692;2022-08-19T14:13:01;42.87;;;35.60;;
3757;SDS011;1894;51.038;13.692;2022-08-19T14:15:29;41.77;;;35.37;;
3757;SDS011;1894;51.038;13.692;2022-08-19T14:17:57;42.47;;;36.77;;
3757;SDS011;1894;51.038;13.692;2022-08-19T14:20:24;46.33;;;38.13;;
3757;SDS011;1894;51.038;13.692;2022-08-19T14:22:52;41.73;;;37.10;;
3757;SDS011;1894;51.038;13.692;2022-08-19T14:25:22;42.93;;;34.30;;
3757;SDS011;1894;51.038;13.692;2022-08-19T14:27:54;43.80;;;38.13;;
3757;SDS011;1894;51.038;13.692;2022-08-19T14:30:26;47.13;;;40.03;;
3757;SDS011;1894;51.038;13.692;2022-08-19T14:32:55;41.30;;;36.73;;
3757;SDS011;1894;51.038;13.692;2022-08-19T14:35:28;46.53;;;38.53;;
3757;SDS011;1894;51.038;13.692;2022-08-19T14:37:56;42.43;;;37.53;;
3757;SDS011;1894;51.038;13.692;2022-08-19T14:40:25;44.83;;;39.27;;
3757;SDS011;1894;51.038;13.692;2022-08-19T14:42:54;42.43;;;37.00;;
3757;SDS011;1894;51.038;13.692;2022-08-19T14:45:26;44.30;;;37.67;;
3757;SDS011;1894;51.038;13.692;2022-08-19T14:47:55;43.17;;;38.47;;
3757;SDS011;1894;51.038;13.692;2022-08-19T14:50:22;54.20;;;41.07;;
3757;SDS011;1894;51.038;13.692;2022-08-19T14:52:49;46.70;;;38.63;;
3757;SDS011;1894;51.038;13.692;2022-08-19T14:55:18;45.00;;;38.03;;
3757;SDS011;1894;51.038;13.692;2022-08-19T14:57:45;48.53;;;38.23;;
3757;SDS011;1894;51.038;13.692;2022-08-19T15:00:12;37.77;;;33.77;;
3757;SDS011;1894;51.038;13.692;2022-08-19T15:02:40;49.90;;;37.57;;
3757;SDS011;1894;51.038;13.692;2022-08-19T15:05:10;42.07;;;34.90;;
3757;SDS011;1894;51.038;13.692;2022-08-19T15:07:39;43.57;;;35.20;;
3757;SDS011;1894;51.038;13.692;2022-08-19T15:10:07;44.17;;;37.33;;
3757;SDS011;1894;51.038;13.692;2022-08-19T15:12:37;41.00;;;35.77;;